sensor_id;sensor_type;location;lat;lon;timestamp;temperature;humidity
35463;DHT22;21578;47.892;9.970;2023-04-06T00:01:32;1.00;86.30
35463;DHT22;21578;47.892;9.970;2023-04-06T00:06:19;1.00;87.20
35463;DHT22;21578;47.892;9.970;2023-04-06T00:11:06;0.90;87.90
35463;DHT22;21578;47.892;9.970;2023-04-06T00:15:54;1.00;88.30
35463;DHT22;21578;47.892;9.970;2023-04-06T00:20:41;1.00;89.20
35463;DHT22;21578;47.892;9.970;2023-04-06T00:25:28;1.00;88.60
35463;DHT22;21578;47.892;9.970;2023-04-06T00:30:15;1.00;87.60
35463;DHT22;21578;47.892;9.970;2023-04-06T00:35:04;1.10;85.90
35463;DHT22;21578;47.892;9.970;2023-04-06T00:39:51;1.10;86.20
35463;DHT22;21578;47.892;9.970;2023-04-06T00:44:38;1.00;88.10
35463;DHT22;21578;47.892;9.970;2023-04-06T00:49:26;0.90;87.90
35463;DHT22;21578;47.892;9.970;2023-04-06T00:54:14;0.90;88.10
35463;DHT22;21578;47.892;9.970;2023-04-06T00:59:01;0.90;87.10
35463;DHT22;21578;47.892;9.970;2023-04-06T01:03:48;0.80;87.30
35463;DHT22;21578;47.892;9.970;2023-04-06T01:08:36;0.80;88.10
35463;DHT22;21578;47.892;9.970;2023-04-06T01:13:24;0.70;89.10
35463;DHT22;21578;47.892;9.970;2023-04-06T01:18:11;0.70;89.00
35463;DHT22;21578;47.892;9.970;2023-04-06T01:22:59;0.70;88.40
35463;DHT22;21578;47.892;9.970;2023-04-06T01:27:46;0.60;87.50
35463;DHT22;21578;47.892;9.970;2023-04-06T01:32:33;0.70;88.00
35463;DHT22;21578;47.892;9.970;2023-04-06T01:37:20;0.60;88.50
35463;DHT22;21578;47.892;9.970;2023-04-06T01:42:08;0.60;89.20
35463;DHT22;21578;47.892;9.970;2023-04-06T01:46:56;0.60;89.50
35463;DHT22;21578;47.892;9.970;2023-04-06T01:51:43;0.50;89.80
35463;DHT22;21578;47.892;9.970;2023-04-06T01:56:30;0.50;89.30
35463;DHT22;21578;47.892;9.970;2023-04-06T02:01:18;0.50;89.00
35463;DHT22;21578;47.892;9.970;2023-04-06T02:06:05;0.40;90.10
35463;DHT22;21578;47.892;9.970;2023-04-06T02:10:52;0.50;88.90
35463;DHT22;21578;47.892;9.970;2023-04-06T02:15:39;0.30;89.80
35463;DHT22;21578;47.892;9.970;2023-04-06T02:20:27;0.20;90.80
35463;DHT22;21578;47.892;9.970;2023-04-06T02:25:14;0.20;91.00
35463;DHT22;21578;47.892;9.970;2023-04-06T02:30:01;0.20;90.90
35463;DHT22;21578;47.892;9.970;2023-04-06T02:34:48;0.10;91.50
35463;DHT22;21578;47.892;9.970;2023-04-06T02:39:36;0.10;91.00
35463;DHT22;21578;47.892;9.970;2023-04-06T02:44:23;0.10;90.20
35463;DHT22;21578;47.892;9.970;2023-04-06T02:49:10;0.00;91.40
35463;DHT22;21578;47.892;9.970;2023-04-06T02:53:57;0.00;91.30
35463;DHT22;21578;47.892;9.970;2023-04-06T02:58:45;0.00;91.60
35463;DHT22;21578;47.892;9.970;2023-04-06T03:03:32;0.00;91.30
35463;DHT22;21578;47.892;9.970;2023-04-06T03:08:19;0.00;91.50
35463;DHT22;21578;47.892;9.970;2023-04-06T03:13:06;0.00;91.40
35463;DHT22;21578;47.892;9.970;2023-04-06T03:17:55;0.00;91.20
35463;DHT22;21578;47.892;9.970;2023-04-06T03:22:42;0.00;90.70
35463;DHT22;21578;47.892;9.970;2023-04-06T03:27:28;0.00;90.50
35463;DHT22;21578;47.892;9.970;2023-04-06T03:32:15;0.00;90.50
35463;DHT22;21578;47.892;9.970;2023-04-06T03:37:04;0.10;89.50
35463;DHT22;21578;47.892;9.970;2023-04-06T03:41:50;0.00;89.80
35463;DHT22;21578;47.892;9.970;2023-04-06T03:46:37;-0.10;89.90
35463;DHT22;21578;47.892;9.970;2023-04-06T03:51:25;-0.10;90.40
35463;DHT22;21578;47.892;9.970;2023-04-06T03:56:13;-0.20;90.40
35463;DHT22;21578;47.892;9.970;2023-04-06T04:01:00;-0.20;90.10
35463;DHT22;21578;47.892;9.970;2023-04-06T04:05:47;-0.10;90.10
35463;DHT22;21578;47.892;9.970;2023-04-06T04:10:33;-0.10;90.10
35463;DHT22;21578;47.892;9.970;2023-04-06T04:15:22;0.00;91.60
35463;DHT22;21578;47.892;9.970;2023-04-06T04:20:09;0.20;91.20
35463;DHT22;21578;47.892;9.970;2023-04-06T04:24:56;0.10;90.00
35463;DHT22;21578;47.892;9.970;2023-04-06T04:29:43;0.00;90.40
35463;DHT22;21578;47.892;9.970;2023-04-06T04:34:32;-0.10;90.10
35463;DHT22;21578;47.892;9.970;2023-04-06T04:39:18;-0.10;90.10
35463;DHT22;21578;47.892;9.970;2023-04-06T04:44:05;-0.10;90.20
35463;DHT22;21578;47.892;9.970;2023-04-06T04:48:52;-0.20;91.40
35463;DHT22;21578;47.892;9.970;2023-04-06T04:53:41;-0.20;91.30
35463;DHT22;21578;47.892;9.970;2023-04-06T04:58:27;-0.10;91.40
35463;DHT22;21578;47.892;9.970;2023-04-06T05:03:19;-0.10;91.30
35463;DHT22;21578;47.892;9.970;2023-04-06T05:08:07;0.00;91.20
35463;DHT22;21578;47.892;9.970;2023-04-06T05:12:55;0.10;91.10
35463;DHT22;21578;47.892;9.970;2023-04-06T05:17:45;0.20;90.30
35463;DHT22;21578;47.892;9.970;2023-04-06T05:22:32;0.30;90.40
35463;DHT22;21578;47.892;9.970;2023-04-06T05:27:19;0.40;90.40
35463;DHT22;21578;47.892;9.970;2023-04-06T05:32:07;0.50;90.20
35463;DHT22;21578;47.892;9.970;2023-04-06T05:36:54;0.60;90.00
35463;DHT22;21578;47.892;9.970;2023-04-06T05:41:41;0.70;89.10
35463;DHT22;21578;47.892;9.970;2023-04-06T05:46:28;0.90;88.20
35463;DHT22;21578;47.892;9.970;2023-04-06T05:51:16;0.90;87.40
35463;DHT22;21578;47.892;9.970;2023-04-06T05:56:04;0.90;87.40
35463;DHT22;21578;47.892;9.970;2023-04-06T06:00:51;0.90;87.40
35463;DHT22;21578;47.892;9.970;2023-04-06T06:05:42;0.90;86.90
35463;DHT22;21578;47.892;9.970;2023-04-06T06:10:30;0.90;87.70
35463;DHT22;21578;47.892;9.970;2023-04-06T06:15:17;0.90;87.70
35463;DHT22;21578;47.892;9.970;2023-04-06T06:20:05;0.90;87.60
35463;DHT22;21578;47.892;9.970;2023-04-06T06:24:53;1.10;87.30
35463;DHT22;21578;47.892;9.970;2023-04-06T06:29:41;1.20;87.00
35463;DHT22;21578;47.892;9.970;2023-04-06T06:34:28;1.30;87.50
35463;DHT22;21578;47.892;9.970;2023-04-06T06:39:15;1.50;85.80
35463;DHT22;21578;47.892;9.970;2023-04-06T06:44:02;1.70;85.50
35463;DHT22;21578;47.892;9.970;2023-04-06T06:48:50;1.80;85.40
35463;DHT22;21578;47.892;9.970;2023-04-06T06:53:37;1.90;85.00
35463;DHT22;21578;47.892;9.970;2023-04-06T06:58:24;2.10;83.80
35463;DHT22;21578;47.892;9.970;2023-04-06T07:03:11;2.30;83.70
35463;DHT22;21578;47.892;9.970;2023-04-06T07:07:59;2.40;83.60
35463;DHT22;21578;47.892;9.970;2023-04-06T07:12:46;2.60;82.90
35463;DHT22;21578;47.892;9.970;2023-04-06T07:17:33;2.60;83.00
35463;DHT22;21578;47.892;9.970;2023-04-06T07:22:20;2.70;83.40
35463;DHT22;21578;47.892;9.970;2023-04-06T07:27:08;2.80;83.40
35463;DHT22;21578;47.892;9.970;2023-04-06T07:31:55;3.00;82.90
35463;DHT22;21578;47.892;9.970;2023-04-06T07:36:42;3.10;83.20
35463;DHT22;21578;47.892;9.970;2023-04-06T07:41:30;3.40;81.00
35463;DHT22;21578;47.892;9.970;2023-04-06T07:46:18;3.70;80.90
35463;DHT22;21578;47.892;9.970;2023-04-06T07:51:06;4.00;79.50
35463;DHT22;21578;47.892;9.970;2023-04-06T07:55:54;4.00;79.00
35463;DHT22;21578;47.892;9.970;2023-04-06T08:00:41;4.10;79.10
35463;DHT22;21578;47.892;9.970;2023-04-06T08:05:30;4.20;78.10
35463;DHT22;21578;47.892;9.970;2023-04-06T08:10:17;4.40;77.10
35463;DHT22;21578;47.892;9.970;2023-04-06T08:15:04;4.60;77.10
35463;DHT22;21578;47.892;9.970;2023-04-06T08:19:51;4.60;79.10
35463;DHT22;21578;47.892;9.970;2023-04-06T08:24:40;4.70;78.90
35463;DHT22;21578;47.892;9.970;2023-04-06T08:29:27;4.80;76.50
35463;DHT22;21578;47.892;9.970;2023-04-06T08:34:14;4.90;75.20
35463;DHT22;21578;47.892;9.970;2023-04-06T08:39:01;5.00;73.30
35463;DHT22;21578;47.892;9.970;2023-04-06T08:43:51;5.20;74.70
35463;DHT22;21578;47.892;9.970;2023-04-06T08:48:40;5.40;74.00
35463;DHT22;21578;47.892;9.970;2023-04-06T08:53:27;5.60;72.00
35463;DHT22;21578;47.892;9.970;2023-04-06T08:58:15;5.70;72.10
35463;DHT22;21578;47.892;9.970;2023-04-06T09:03:03;5.80;72.20
35463;DHT22;21578;47.892;9.970;2023-04-06T09:07:51;5.80;71.80
35463;DHT22;21578;47.892;9.970;2023-04-06T09:12:38;5.90;72.60
35463;DHT22;21578;47.892;9.970;2023-04-06T09:17:26;6.10;73.70
35463;DHT22;21578;47.892;9.970;2023-04-06T09:22:15;6.30;71.80
35463;DHT22;21578;47.892;9.970;2023-04-06T09:27:02;6.30;70.90
35463;DHT22;21578;47.892;9.970;2023-04-06T09:31:49;6.30;71.40
35463;DHT22;21578;47.892;9.970;2023-04-06T09:36:36;6.50;70.70
35463;DHT22;21578;47.892;9.970;2023-04-06T09:41:28;6.70;70.90
35463;DHT22;21578;47.892;9.970;2023-04-06T09:46:16;6.80;69.20
35463;DHT22;21578;47.892;9.970;2023-04-06T09:51:04;7.00;71.10
35463;DHT22;21578;47.892;9.970;2023-04-06T09:55:57;7.30;68.20
35463;DHT22;21578;47.892;9.970;2023-04-06T10:01:01;7.40;69.40
35463;DHT22;21578;47.892;9.970;2023-04-06T10:05:54;7.50;69.20
35463;DHT22;21578;47.892;9.970;2023-04-06T10:10:43;7.70;65.70
35463;DHT22;21578;47.892;9.970;2023-04-06T10:15:31;7.70;67.10
35463;DHT22;21578;47.892;9.970;2023-04-06T10:20:23;7.70;66.00
35463;DHT22;21578;47.892;9.970;2023-04-06T10:25:12;8.00;66.90
35463;DHT22;21578;47.892;9.970;2023-04-06T10:30:03;8.30;66.20
35463;DHT22;21578;47.892;9.970;2023-04-06T10:34:50;8.70;66.20
35463;DHT22;21578;47.892;9.970;2023-04-06T10:39:46;9.00;65.10
35463;DHT22;21578;47.892;9.970;2023-04-06T10:44:42;9.20;65.20
35463;DHT22;21578;47.892;9.970;2023-04-06T10:49:29;8.80;64.00
35463;DHT22;21578;47.892;9.970;2023-04-06T10:54:17;8.10;64.70
35463;DHT22;21578;47.892;9.970;2023-04-06T10:59:06;8.00;65.00
35463;DHT22;21578;47.892;9.970;2023-04-06T11:03:55;8.10;64.70
35463;DHT22;21578;47.892;9.970;2023-04-06T11:08:44;8.00;64.80
35463;DHT22;21578;47.892;9.970;2023-04-06T11:13:37;8.00;63.60
35463;DHT22;21578;47.892;9.970;2023-04-06T11:18:26;8.50;62.90
35463;DHT22;21578;47.892;9.970;2023-04-06T11:23:22;8.60;60.90
35463;DHT22;21578;47.892;9.970;2023-04-06T11:28:09;8.80;62.90
35463;DHT22;21578;47.892;9.970;2023-04-06T11:33:01;9.00;61.10
35463;DHT22;21578;47.892;9.970;2023-04-06T11:37:50;9.10;59.60
35463;DHT22;21578;47.892;9.970;2023-04-06T11:42:37;8.90;60.30
35463;DHT22;21578;47.892;9.970;2023-04-06T11:47:28;8.90;60.60
35463;DHT22;21578;47.892;9.970;2023-04-06T11:52:17;8.80;60.70
35463;DHT22;21578;47.892;9.970;2023-04-06T11:57:08;8.90;60.60
35463;DHT22;21578;47.892;9.970;2023-04-06T12:01:56;9.10;60.80
35463;DHT22;21578;47.892;9.970;2023-04-06T12:06:43;8.80;59.70
35463;DHT22;21578;47.892;9.970;2023-04-06T12:11:30;8.80;60.40
35463;DHT22;21578;47.892;9.970;2023-04-06T12:16:18;9.40;60.40
35463;DHT22;21578;47.892;9.970;2023-04-06T12:21:05;9.70;58.40
35463;DHT22;21578;47.892;9.970;2023-04-06T12:25:52;9.60;58.20
35463;DHT22;21578;47.892;9.970;2023-04-06T12:30:40;9.60;58.60
35463;DHT22;21578;47.892;9.970;2023-04-06T12:35:28;9.70;60.30
35463;DHT22;21578;47.892;9.970;2023-04-06T12:40:15;10.20;57.70
35463;DHT22;21578;47.892;9.970;2023-04-06T12:45:03;10.50;55.50
35463;DHT22;21578;47.892;9.970;2023-04-06T12:49:50;11.10;55.40
35463;DHT22;21578;47.892;9.970;2023-04-06T12:54:38;11.60;52.30
35463;DHT22;21578;47.892;9.970;2023-04-06T12:59:25;11.40;52.80
35463;DHT22;21578;47.892;9.970;2023-04-06T13:04:12;10.50;53.80
35463;DHT22;21578;47.892;9.970;2023-04-06T13:08:59;10.50;54.50
35463;DHT22;21578;47.892;9.970;2023-04-06T13:13:47;10.60;55.50
35463;DHT22;21578;47.892;9.970;2023-04-06T13:18:35;10.40;56.40
35463;DHT22;21578;47.892;9.970;2023-04-06T13:23:23;10.30;58.10
35463;DHT22;21578;47.892;9.970;2023-04-06T13:28:10;10.70;57.50
35463;DHT22;21578;47.892;9.970;2023-04-06T13:32:59;11.00;57.40
35463;DHT22;21578;47.892;9.970;2023-04-06T13:37:46;11.20;53.80
35463;DHT22;21578;47.892;9.970;2023-04-06T13:42:33;11.10;54.50
35463;DHT22;21578;47.892;9.970;2023-04-06T13:47:21;11.40;53.90
35463;DHT22;21578;47.892;9.970;2023-04-06T13:52:09;11.60;49.60
35463;DHT22;21578;47.892;9.970;2023-04-06T13:56:56;12.00;48.90
35463;DHT22;21578;47.892;9.970;2023-04-06T14:01:43;11.50;49.90
35463;DHT22;21578;47.892;9.970;2023-04-06T14:06:30;11.80;51.40
35463;DHT22;21578;47.892;9.970;2023-04-06T14:11:18;11.80;53.80
35463;DHT22;21578;47.892;9.970;2023-04-06T14:16:06;11.60;53.40
35463;DHT22;21578;47.892;9.970;2023-04-06T14:20:56;11.50;52.10
35463;DHT22;21578;47.892;9.970;2023-04-06T14:25:44;11.20;52.70
35463;DHT22;21578;47.892;9.970;2023-04-06T14:30:32;11.10;51.00
35463;DHT22;21578;47.892;9.970;2023-04-06T14:35:19;11.20;50.20
35463;DHT22;21578;47.892;9.970;2023-04-06T14:40:07;11.20;51.30
35463;DHT22;21578;47.892;9.970;2023-04-06T14:44:54;11.20;51.10
35463;DHT22;21578;47.892;9.970;2023-04-06T14:49:44;11.20;50.20
35463;DHT22;21578;47.892;9.970;2023-04-06T14:54:31;11.10;51.60
35463;DHT22;21578;47.892;9.970;2023-04-06T14:59:18;11.10;50.40
35463;DHT22;21578;47.892;9.970;2023-04-06T15:04:05;11.10;51.40
35463;DHT22;21578;47.892;9.970;2023-04-06T15:08:53;11.40;50.70
35463;DHT22;21578;47.892;9.970;2023-04-06T15:13:40;11.70;50.60
35463;DHT22;21578;47.892;9.970;2023-04-06T15:18:28;11.70;50.20
35463;DHT22;21578;47.892;9.970;2023-04-06T15:23:15;11.70;50.60
35463;DHT22;21578;47.892;9.970;2023-04-06T15:28:03;11.50;50.70
35463;DHT22;21578;47.892;9.970;2023-04-06T15:32:54;11.20;51.10
35463;DHT22;21578;47.892;9.970;2023-04-06T15:37:41;11.20;51.00
35463;DHT22;21578;47.892;9.970;2023-04-06T15:42:28;11.30;51.90
35463;DHT22;21578;47.892;9.970;2023-04-06T15:47:16;11.30;51.30
35463;DHT22;21578;47.892;9.970;2023-04-06T15:52:03;11.30;52.20
35463;DHT22;21578;47.892;9.970;2023-04-06T15:56:50;11.30;51.70
35463;DHT22;21578;47.892;9.970;2023-04-06T16:01:37;11.20;51.40
35463;DHT22;21578;47.892;9.970;2023-04-06T16:06:26;10.90;52.50
35463;DHT22;21578;47.892;9.970;2023-04-06T16:11:13;10.90;53.00
35463;DHT22;21578;47.892;9.970;2023-04-06T16:16:00;10.80;53.60
35463;DHT22;21578;47.892;9.970;2023-04-06T16:20:48;10.70;53.30
35463;DHT22;21578;47.892;9.970;2023-04-06T16:25:38;10.50;54.50
35463;DHT22;21578;47.892;9.970;2023-04-06T16:30:26;10.40;55.90
35463;DHT22;21578;47.892;9.970;2023-04-06T16:35:14;10.40;56.30
35463;DHT22;21578;47.892;9.970;2023-04-06T16:40:01;10.40;58.10
35463;DHT22;21578;47.892;9.970;2023-04-06T16:44:50;10.30;57.10
35463;DHT22;21578;47.892;9.970;2023-04-06T16:49:37;10.20;57.00
35463;DHT22;21578;47.892;9.970;2023-04-06T16:54:24;10.00;58.00
35463;DHT22;21578;47.892;9.970;2023-04-06T16:59:11;9.90;59.10
35463;DHT22;21578;47.892;9.970;2023-04-06T17:03:59;9.80;59.80
35463;DHT22;21578;47.892;9.970;2023-04-06T17:08:47;9.70;60.80
35463;DHT22;21578;47.892;9.970;2023-04-06T17:13:34;9.60;60.20
35463;DHT22;21578;47.892;9.970;2023-04-06T17:18:20;9.40;61.50
35463;DHT22;21578;47.892;9.970;2023-04-06T17:23:09;9.30;62.60
35463;DHT22;21578;47.892;9.970;2023-04-06T17:27:56;9.20;62.70
35463;DHT22;21578;47.892;9.970;2023-04-06T17:32:42;9.00;64.90
35463;DHT22;21578;47.892;9.970;2023-04-06T17:37:30;9.00;66.30
35463;DHT22;21578;47.892;9.970;2023-04-06T17:42:18;8.80;67.60
35463;DHT22;21578;47.892;9.970;2023-04-06T17:47:05;8.70;67.50
35463;DHT22;21578;47.892;9.970;2023-04-06T17:51:52;8.60;66.90
35463;DHT22;21578;47.892;9.970;2023-04-06T17:56:39;8.40;67.60
35463;DHT22;21578;47.892;9.970;2023-04-06T18:01:27;8.30;68.30
35463;DHT22;21578;47.892;9.970;2023-04-06T18:06:16;8.20;69.20
35463;DHT22;21578;47.892;9.970;2023-04-06T18:11:05;8.10;69.50
35463;DHT22;21578;47.892;9.970;2023-04-06T18:15:52;8.00;69.20
35463;DHT22;21578;47.892;9.970;2023-04-06T18:20:41;7.90;69.20
35463;DHT22;21578;47.892;9.970;2023-04-06T18:25:28;7.80;69.80
35463;DHT22;21578;47.892;9.970;2023-04-06T18:30:15;7.60;70.20
35463;DHT22;21578;47.892;9.970;2023-04-06T18:35:02;7.60;70.30
35463;DHT22;21578;47.892;9.970;2023-04-06T18:39:52;7.60;71.20
35463;DHT22;21578;47.892;9.970;2023-04-06T18:44:39;7.50;71.20
35463;DHT22;21578;47.892;9.970;2023-04-06T18:49:26;7.50;71.50
35463;DHT22;21578;47.892;9.970;2023-04-06T18:54:13;7.40;72.80
35463;DHT22;21578;47.892;9.970;2023-04-06T18:59:01;7.30;73.70
35463;DHT22;21578;47.892;9.970;2023-04-06T19:03:48;7.30;73.10
35463;DHT22;21578;47.892;9.970;2023-04-06T19:08:35;7.30;73.60
35463;DHT22;21578;47.892;9.970;2023-04-06T19:13:22;7.20;74.80
35463;DHT22;21578;47.892;9.970;2023-04-06T19:18:13;7.20;74.40
35463;DHT22;21578;47.892;9.970;2023-04-06T19:22:59;7.20;74.10
35463;DHT22;21578;47.892;9.970;2023-04-06T19:27:47;7.10;73.20
35463;DHT22;21578;47.892;9.970;2023-04-06T19:32:34;7.10;74.10
35463;DHT22;21578;47.892;9.970;2023-04-06T19:37:22;7.10;73.00
35463;DHT22;21578;47.892;9.970;2023-04-06T19:42:11;7.10;73.00
35463;DHT22;21578;47.892;9.970;2023-04-06T19:46:59;7.10;74.10
35463;DHT22;21578;47.892;9.970;2023-04-06T19:51:46;7.10;72.10
35463;DHT22;21578;47.892;9.970;2023-04-06T19:56:34;7.20;71.30
35463;DHT22;21578;47.892;9.970;2023-04-06T20:01:21;7.30;71.00
35463;DHT22;21578;47.892;9.970;2023-04-06T20:06:08;7.20;71.30
35463;DHT22;21578;47.892;9.970;2023-04-06T20:10:59;7.00;73.20
35463;DHT22;21578;47.892;9.970;2023-04-06T20:15:48;6.90;75.50
35463;DHT22;21578;47.892;9.970;2023-04-06T20:20:36;6.90;77.60
35463;DHT22;21578;47.892;9.970;2023-04-06T20:25:22;6.80;76.70
35463;DHT22;21578;47.892;9.970;2023-04-06T20:30:11;6.80;74.40
35463;DHT22;21578;47.892;9.970;2023-04-06T20:35:00;6.80;75.70
35463;DHT22;21578;47.892;9.970;2023-04-06T20:39:47;6.80;76.30
35463;DHT22;21578;47.892;9.970;2023-04-06T20:44:34;6.90;74.30
35463;DHT22;21578;47.892;9.970;2023-04-06T20:49:21;6.90;74.00
35463;DHT22;21578;47.892;9.970;2023-04-06T20:54:10;6.80;75.20
35463;DHT22;21578;47.892;9.970;2023-04-06T20:58:56;6.90;73.10
35463;DHT22;21578;47.892;9.970;2023-04-06T21:03:44;6.90;73.30
35463;DHT22;21578;47.892;9.970;2023-04-06T21:08:31;6.90;71.90
35463;DHT22;21578;47.892;9.970;2023-04-06T21:13:19;6.80;73.90
35463;DHT22;21578;47.892;9.970;2023-04-06T21:18:06;6.70;74.90
35463;DHT22;21578;47.892;9.970;2023-04-06T21:22:53;6.60;73.00
35463;DHT22;21578;47.892;9.970;2023-04-06T21:27:39;6.80;70.60
35463;DHT22;21578;47.892;9.970;2023-04-06T21:32:28;6.80;71.40
35463;DHT22;21578;47.892;9.970;2023-04-06T21:37:15;6.80;72.40
35463;DHT22;21578;47.892;9.970;2023-04-06T21:42:01;6.70;73.90
35463;DHT22;21578;47.892;9.970;2023-04-06T21:46:48;6.70;74.90
35463;DHT22;21578;47.892;9.970;2023-04-06T21:51:37;6.60;75.50
35463;DHT22;21578;47.892;9.970;2023-04-06T21:56:25;6.70;74.80
35463;DHT22;21578;47.892;9.970;2023-04-06T22:01:11;6.80;75.70
35463;DHT22;21578;47.892;9.970;2023-04-06T22:06:01;6.70;76.50
35463;DHT22;21578;47.892;9.970;2023-04-06T22:10:50;6.70;76.30
35463;DHT22;21578;47.892;9.970;2023-04-06T22:15:37;6.70;76.00
35463;DHT22;21578;47.892;9.970;2023-04-06T22:20:24;6.60;77.50
35463;DHT22;21578;47.892;9.970;2023-04-06T22:25:11;6.70;76.50
35463;DHT22;21578;47.892;9.970;2023-04-06T22:29:59;6.70;76.50
35463;DHT22;21578;47.892;9.970;2023-04-06T22:34:46;6.60;76.80
35463;DHT22;21578;47.892;9.970;2023-04-06T22:39:33;6.60;77.00
35463;DHT22;21578;47.892;9.970;2023-04-06T22:44:20;6.50;76.90
35463;DHT22;21578;47.892;9.970;2023-04-06T22:49:09;6.40;77.70
35463;DHT22;21578;47.892;9.970;2023-04-06T22:53:55;6.40;78.10
35463;DHT22;21578;47.892;9.970;2023-04-06T22:58:42;6.50;78.60
35463;DHT22;21578;47.892;9.970;2023-04-06T23:03:29;6.40;80.30
35463;DHT22;21578;47.892;9.970;2023-04-06T23:08:17;6.30;81.50
35463;DHT22;21578;47.892;9.970;2023-04-06T23:13:04;6.10;85.00
35463;DHT22;21578;47.892;9.970;2023-04-06T23:17:51;6.10;87.50
35463;DHT22;21578;47.892;9.970;2023-04-06T23:22:38;6.00;89.70
35463;DHT22;21578;47.892;9.970;2023-04-06T23:27:26;5.90;90.70
35463;DHT22;21578;47.892;9.970;2023-04-06T23:32:13;5.80;92.00
35463;DHT22;21578;47.892;9.970;2023-04-06T23:37:00;5.70;94.10
35463;DHT22;21578;47.892;9.970;2023-04-06T23:41:47;5.60;96.30
35463;DHT22;21578;47.892;9.970;2023-04-06T23:46:35;5.40;96.60
35463;DHT22;21578;47.892;9.970;2023-04-06T23:51:22;5.40;96.60
35463;DHT22;21578;47.892;9.970;2023-04-06T23:56:09;5.30;96.60
